Derniers Évènements passés

Avion

Aérodrome de Reims-Prunay Aérodrome de Reims-Prunay, Prunay

Afin de partager au maximum la passion de l’aviation avec vous, nous organisons des weekends pleins d’activités aéronautiques. Prenez place dans un vrai avion de chasse piloté par un ancien …

METAR :

LFQA 300130Z AUTO 30005KT 9999 SCT013 SCT018 12/11 Q1008


vue en direct sur l'aérodrome
facturation mentions légales politique de confidentialité
Cochet Concept
cx